createdAt,value
2017-12-03T00:00:06.059Z,21.85
2017-12-03T00:02:36.727Z,22.02
2017-12-03T00:05:06.236Z,22.05
2017-12-03T00:07:35.688Z,23.27
2017-12-03T00:10:05.854Z,22.15
2017-12-03T00:12:35.424Z,20.52
2017-12-03T00:15:04.822Z,21.17
2017-12-03T00:17:34.388Z,19.75
2017-12-03T00:20:04.615Z,20.75
2017-12-03T00:22:34.247Z,21.80
2017-12-03T00:25:04.709Z,22.17
2017-12-03T00:27:33.821Z,21.83
2017-12-03T00:30:02.949Z,23.10
2017-12-03T00:32:33.567Z,22.10
2017-12-03T00:35:02.681Z,19.45
2017-12-03T00:37:31.795Z,20.90
2017-12-03T00:40:01.978Z,26.10
2017-12-03T00:42:31.127Z,24.55
2017-12-03T00:45:00.289Z,20.02
2017-12-03T00:47:29.547Z,23.00
2017-12-03T00:49:58.642Z,21.10
2017-12-03T00:52:27.818Z,21.62
2017-12-03T00:54:56.964Z,21.85
2017-12-03T00:57:26.089Z,20.08
2017-12-03T00:59:55.541Z,20.05
2017-12-03T01:02:25.679Z,19.02
2017-12-03T01:04:55.549Z,23.02
2017-12-03T01:07:24.695Z,19.90
2017-12-03T01:09:54.887Z,20.15
2017-12-03T01:12:24.004Z,18.00
2017-12-03T01:14:53.190Z,18.95
2017-12-03T01:17:23.207Z,20.12
2017-12-03T01:19:52.385Z,22.00
2017-12-03T01:22:21.479Z,18.33
2017-12-03T01:24:50.776Z,20.62
2017-12-03T01:27:19.917Z,15.63
2017-12-03T01:29:49.050Z,17.33
2017-12-03T01:32:19.422Z,17.50
2017-12-03T01:34:48.534Z,16.77
2017-12-03T01:37:17.725Z,15.90
2017-12-03T01:39:47.203Z,16.48
2017-12-03T01:42:16.503Z,15.50
2017-12-03T01:44:46.224Z,18.08
2017-12-03T01:47:15.489Z,15.95
2017-12-03T01:49:44.747Z,16.30
2017-12-03T01:52:14.725Z,14.85
2017-12-03T01:54:43.897Z,14.75
2017-12-03T01:57:13.061Z,14.30
2017-12-03T01:59:42.270Z,15.77
2017-12-03T02:02:11.526Z,15.27
2017-12-03T02:04:40.644Z,12.68
2017-12-03T02:07:09.835Z,14.18
2017-12-03T02:09:39.084Z,13.00
2017-12-03T02:12:08.945Z,12.65
2017-12-03T02:14:38.151Z,11.32
2017-12-03T02:17:07.319Z,11.98
2017-12-03T02:19:36.571Z,12.10
2017-12-03T02:22:05.718Z,12.27
2017-12-03T02:24:35.465Z,11.27
2017-12-03T02:27:04.640Z,11.45
2017-12-03T02:29:33.767Z,14.60
2017-12-03T02:32:03.248Z,11.40
2017-12-03T02:34:32.334Z,9.75
2017-12-03T02:37:01.457Z,9.05
2017-12-03T02:39:32.872Z,10.57
2017-12-03T02:42:01.989Z,11.60
2017-12-03T02:44:31.086Z,10.05
2017-12-03T02:47:01.115Z,9.65
2017-12-03T02:49:30.255Z,11.20
2017-12-03T02:51:59.396Z,9.20
2017-12-03T02:54:29.223Z,7.95
2017-12-03T02:56:58.311Z,8.10
2017-12-03T02:59:28.170Z,8.98
2017-12-03T03:01:58.127Z,9.05
2017-12-03T03:04:27.193Z,8.13
2017-12-03T03:06:56.274Z,8.65
2017-12-03T03:09:26.295Z,8.13
2017-12-03T03:11:55.386Z,7.75
2017-12-03T03:14:24.523Z,8.50
2017-12-03T03:16:54.540Z,9.95
2017-12-03T03:19:23.672Z,8.77
2017-12-03T03:21:52.784Z,8.88
2017-12-03T03:24:23.465Z,8.48
2017-12-03T03:26:52.611Z,8.95
2017-12-03T03:29:21.702Z,8.90
2017-12-03T03:31:51.522Z,8.80
2017-12-03T03:34:20.606Z,8.43
2017-12-03T03:36:49.762Z,8.55
2017-12-03T03:39:18.961Z,9.20
2017-12-03T03:41:48.068Z,8.27
2017-12-03T03:44:17.288Z,8.85
2017-12-03T03:46:46.684Z,7.37
2017-12-03T03:49:15.814Z,8.50
2017-12-03T03:51:44.984Z,7.80
2017-12-03T03:54:14.459Z,8.85
2017-12-03T03:56:43.729Z,9.95
2017-12-03T03:59:12.925Z,9.43
2017-12-03T04:01:43.102Z,9.65
2017-12-03T04:04:12.376Z,8.60
2017-12-03T04:06:41.509Z,9.93
2017-12-03T04:09:10.699Z,9.23
2017-12-03T04:11:39.888Z,9.65
2017-12-03T04:14:09.036Z,9.65
2017-12-03T04:16:38.259Z,10.60
2017-12-03T04:19:07.467Z,10.02
2017-12-03T04:21:36.562Z,9.70
2017-12-03T04:24:07.221Z,10.07
2017-12-03T04:26:37.849Z,9.88
2017-12-03T04:29:06.997Z,10.93
2017-12-03T04:31:37.997Z,10.30
2017-12-03T04:34:07.087Z,10.88
2017-12-03T04:36:36.994Z,11.07
2017-12-03T04:39:06.595Z,10.75
2017-12-03T04:41:35.858Z,10.55
2017-12-03T04:44:05.177Z,10.55
2017-12-03T04:46:35.219Z,11.55
2017-12-03T04:49:04.364Z,10.88
2017-12-03T04:51:33.490Z,11.10
2017-12-03T04:54:02.620Z,10.45
2017-12-03T04:56:31.755Z,10.40
2017-12-03T04:59:00.913Z,11.45
2017-12-03T05:01:30.396Z,13.18
2017-12-03T05:03:59.560Z,11.35
2017-12-03T05:06:29.505Z,11.75
2017-12-03T05:08:58.687Z,12.45
2017-12-03T05:11:27.822Z,12.15
2017-12-03T05:13:57.962Z,11.48
2017-12-03T05:16:27.730Z,11.95
2017-12-03T05:18:56.838Z,12.13
2017-12-03T05:21:25.999Z,12.40
2017-12-03T05:23:55.150Z,11.23
2017-12-03T05:26:24.290Z,11.20
2017-12-03T05:28:53.413Z,10.93
2017-12-03T05:31:22.648Z,11.07
2017-12-03T05:33:52.650Z,10.82
2017-12-03T05:36:22.562Z,11.52
2017-12-03T05:38:51.746Z,12.77
2017-12-03T05:41:20.913Z,12.25
2017-12-03T05:43:50.862Z,12.20
2017-12-03T05:46:20.059Z,12.18
2017-12-03T05:48:49.250Z,11.07
2017-12-03T05:51:19.238Z,10.85
2017-12-03T05:53:48.492Z,10.90
2017-12-03T05:56:17.743Z,11.07
2017-12-03T05:58:46.939Z,11.80
2017-12-03T06:01:16.196Z,10.65
2017-12-03T06:03:46.119Z,11.70
2017-12-03T06:06:15.434Z,11.38
2017-12-03T06:08:44.723Z,11.07
2017-12-03T06:11:13.903Z,10.02
2017-12-03T06:13:43.931Z,11.00
2017-12-03T06:16:15.016Z,10.52
2017-12-03T06:18:44.246Z,10.50
2017-12-03T06:21:14.272Z,12.02
2017-12-03T06:23:44.030Z,10.68
2017-12-03T06:26:13.309Z,10.68
2017-12-03T06:28:42.640Z,12.37
2017-12-03T06:31:13.760Z,12.45
2017-12-03T06:33:43.004Z,11.95
2017-12-03T06:36:12.282Z,9.90
2017-12-03T06:38:42.487Z,11.85
2017-12-03T06:41:12.706Z,12.57
2017-12-03T06:43:42.920Z,10.63
2017-12-03T06:46:14.989Z,11.50
2017-12-03T06:48:44.403Z,10.60
2017-12-03T06:51:13.840Z,11.40
2017-12-03T06:53:44.119Z,11.57
2017-12-03T06:56:13.463Z,11.40
2017-12-03T06:58:42.757Z,11.38
2017-12-03T07:01:12.113Z,11.20
2017-12-03T07:03:42.272Z,12.00
2017-12-03T07:06:12.412Z,12.68
2017-12-03T07:08:41.675Z,12.15
2017-12-03T07:11:10.907Z,12.80
2017-12-03T07:13:40.174Z,11.32
2017-12-03T07:16:09.331Z,10.65
2017-12-03T07:18:38.526Z,9.77
2017-12-03T07:21:09.507Z,11.07
2017-12-03T07:23:39.479Z,11.38
2017-12-03T07:26:08.780Z,12.73
2017-12-03T07:28:38.085Z,12.00
2017-12-03T07:31:08.821Z,10.77
2017-12-03T07:33:39.991Z,12.75
2017-12-03T07:36:09.216Z,12.18
2017-12-03T07:38:38.382Z,12.40
2017-12-03T07:41:07.572Z,13.52
2017-12-03T07:43:36.721Z,12.37
2017-12-03T07:46:05.854Z,13.93
2017-12-03T07:48:35.404Z,12.10
2017-12-03T07:51:04.553Z,12.20
2017-12-03T07:53:34.441Z,11.60
2017-12-03T07:56:04.482Z,12.27
2017-12-03T07:58:33.661Z,11.10
2017-12-03T08:01:02.828Z,11.02
2017-12-03T08:03:32.765Z,10.73
2017-12-03T08:06:02.673Z,11.45
2017-12-03T08:08:31.839Z,10.80
2017-12-03T08:11:01.025Z,9.80
2017-12-03T08:13:30.868Z,10.23
2017-12-03T08:16:00.062Z,10.65
2017-12-03T08:18:29.540Z,10.00
2017-12-03T08:20:59.475Z,10.43
2017-12-03T08:23:28.622Z,9.27
2017-12-03T08:25:58.523Z,9.63
2017-12-03T08:28:27.710Z,10.32
2017-12-03T08:30:56.879Z,10.50
2017-12-03T08:33:26.083Z,10.98
2017-12-03T08:35:55.217Z,10.25
2017-12-03T08:38:24.415Z,10.63
2017-12-03T08:40:53.617Z,9.80
2017-12-03T08:43:23.227Z,10.77
2017-12-03T08:45:52.419Z,9.10
2017-12-03T08:48:22.286Z,10.10
2017-12-03T08:50:51.555Z,10.25
2017-12-03T08:53:20.886Z,11.18
2017-12-03T08:55:50.340Z,11.25
2017-12-03T08:58:19.830Z,9.95
2017-12-03T09:00:49.202Z,9.65
2017-12-03T09:03:18.479Z,10.75
2017-12-03T09:05:48.631Z,10.45
2017-12-03T09:08:17.928Z,10.77
2017-12-03T09:10:47.708Z,9.75
2017-12-03T09:13:16.991Z,9.82
2017-12-03T09:15:46.190Z,9.55
2017-12-03T09:18:15.555Z,10.50
2017-12-03T09:20:44.828Z,11.27
2017-12-03T09:23:14.069Z,10.38
2017-12-03T09:25:43.682Z,10.93
2017-12-03T09:28:14.600Z,9.45
2017-12-03T09:30:43.871Z,10.07
2017-12-03T09:33:13.173Z,9.07
2017-12-03T09:35:42.423Z,9.18
2017-12-03T09:38:11.671Z,9.60
2017-12-03T09:40:41.265Z,10.68
2017-12-03T09:43:11.247Z,8.02
2017-12-03T09:45:40.482Z,8.55
2017-12-03T09:48:10.243Z,9.15
2017-12-03T09:50:39.350Z,8.32
2017-12-03T09:53:08.506Z,8.57
2017-12-03T09:55:37.680Z,9.25
2017-12-03T09:58:07.945Z,9.38
2017-12-03T10:00:37.087Z,7.90
2017-12-03T10:03:06.611Z,7.45
2017-12-03T10:05:35.803Z,7.37
2017-12-03T10:08:04.904Z,7.25
2017-12-03T10:10:34.798Z,7.07
2017-12-03T10:13:04.869Z,8.02
2017-12-03T10:15:34.016Z,7.20
2017-12-03T10:18:03.157Z,7.10
2017-12-03T10:20:32.383Z,8.00
2017-12-03T10:23:03.131Z,6.85
2017-12-03T10:25:33.267Z,6.82
2017-12-03T10:28:03.198Z,7.68
2017-12-03T10:30:34.155Z,7.50
2017-12-03T10:33:03.384Z,8.65
2017-12-03T10:35:32.538Z,8.35
2017-12-03T10:38:22.579Z,7.65
2017-12-03T10:40:52.586Z,7.20
2017-12-03T10:43:22.669Z,8.07
2017-12-03T10:45:52.399Z,8.35
2017-12-03T10:48:21.613Z,8.63
2017-12-03T10:50:50.767Z,9.27
2017-12-03T10:53:20.499Z,8.40
2017-12-03T10:55:50.380Z,8.25
2017-12-03T10:58:19.613Z,8.88
2017-12-03T11:00:50.238Z,8.80
2017-12-03T11:03:20.255Z,8.88
2017-12-03T11:05:50.751Z,9.35
2017-12-03T11:08:20.560Z,10.15
2017-12-03T11:10:50.292Z,9.23
2017-12-03T11:13:19.432Z,10.05
2017-12-03T11:15:48.735Z,10.18
2017-12-03T11:18:17.908Z,8.57
2017-12-03T11:20:47.917Z,9.13
2017-12-03T11:23:17.959Z,11.10
2017-12-03T11:25:47.982Z,10.77
2017-12-03T11:28:17.157Z,9.90
2017-12-03T11:30:47.136Z,11.90
2017-12-03T11:33:16.257Z,10.52
2017-12-03T11:35:45.801Z,9.68
2017-12-03T11:38:15.863Z,10.65
2017-12-03T11:40:45.012Z,10.60
2017-12-03T11:43:14.592Z,11.52
2017-12-03T11:45:43.822Z,10.02
2017-12-03T11:48:13.324Z,10.93
2017-12-03T11:50:42.619Z,10.48
2017-12-03T11:53:11.818Z,12.35
2017-12-03T11:55:40.950Z,12.63
2017-12-03T11:58:10.131Z,12.15
2017-12-03T12:00:41.354Z,13.13
2017-12-03T12:03:10.512Z,14.13
2017-12-03T12:05:39.600Z,13.52
2017-12-03T12:08:10.787Z,13.50
2017-12-03T12:10:39.939Z,13.80
2017-12-03T12:13:09.080Z,14.25
2017-12-03T12:15:39.399Z,15.68
2017-12-03T12:18:08.500Z,13.00
2017-12-03T12:20:37.613Z,12.63
2017-12-03T12:23:06.757Z,12.70
2017-12-03T12:25:35.894Z,14.13
2017-12-03T12:28:05.856Z,12.20
2017-12-03T12:30:35.050Z,11.20
2017-12-03T12:33:04.140Z,10.65
2017-12-03T12:35:33.295Z,12.80
2017-12-03T12:38:02.529Z,10.80
2017-12-03T12:40:31.681Z,10.00
2017-12-03T12:43:00.787Z,8.80
2017-12-03T12:45:29.943Z,9.85
2017-12-03T12:47:59.134Z,10.07
2017-12-03T12:50:28.290Z,10.88
2017-12-03T12:52:57.967Z,10.43
2017-12-03T12:55:29.236Z,9.73
2017-12-03T12:57:58.618Z,9.57
2017-12-03T13:00:27.690Z,9.50
2017-12-03T13:02:56.845Z,9.07
2017-12-03T13:05:27.440Z,8.80
2017-12-03T13:07:56.555Z,7.55
2017-12-03T13:10:25.691Z,8.65
2017-12-03T13:12:55.541Z,8.15
2017-12-03T13:15:24.737Z,8.23
2017-12-03T13:17:53.851Z,7.78
2017-12-03T13:20:23.837Z,7.97
2017-12-03T13:22:54.525Z,7.57
2017-12-03T13:25:24.346Z,5.85
2017-12-03T13:27:54.572Z,6.65
2017-12-03T13:30:23.770Z,6.25
2017-12-03T13:32:53.110Z,5.72
2017-12-03T13:35:22.236Z,5.10
2017-12-03T13:37:51.358Z,4.85
2017-12-03T13:40:20.536Z,3.67
2017-12-03T13:42:50.060Z,4.12
2017-12-03T13:45:19.205Z,3.70
2017-12-03T13:47:48.465Z,3.15
2017-12-03T13:50:18.166Z,3.17
2017-12-03T13:52:48.264Z,3.80
2017-12-03T13:55:18.302Z,3.80
2017-12-03T13:57:47.524Z,2.90
2017-12-03T14:00:16.703Z,2.95
2017-12-03T14:02:45.903Z,3.50
2017-12-03T14:05:15.245Z,3.65
2017-12-03T14:07:44.480Z,2.47
2017-12-03T14:10:14.621Z,3.37
2017-12-03T14:12:43.945Z,2.87
2017-12-03T14:15:13.130Z,4.28
2017-12-03T14:17:42.327Z,3.40
2017-12-03T14:20:11.515Z,3.03
2017-12-03T14:22:41.095Z,3.15
2017-12-03T14:25:10.294Z,3.20
2017-12-03T14:27:40.574Z,4.00
2017-12-03T14:30:09.716Z,4.12
2017-12-03T14:32:38.810Z,3.42
2017-12-03T14:35:07.934Z,3.67
2017-12-03T14:37:37.039Z,4.30
2017-12-03T14:40:06.156Z,4.30
2017-12-03T14:42:35.421Z,4.15
2017-12-03T14:45:04.540Z,3.03
2017-12-03T14:47:33.665Z,4.18
2017-12-03T14:50:03.051Z,3.92
2017-12-03T14:52:32.904Z,5.12
2017-12-03T14:55:01.991Z,4.68
2017-12-03T14:57:31.891Z,4.28
2017-12-03T15:00:00.996Z,3.75
2017-12-03T15:02:30.152Z,2.90
2017-12-03T15:04:59.332Z,3.97
2017-12-03T15:07:28.424Z,4.35
2017-12-03T15:09:57.539Z,3.95
2017-12-03T15:12:27.059Z,3.90
2017-12-03T15:14:56.230Z,3.28
2017-12-03T15:17:26.047Z,4.20
2017-12-03T15:19:55.291Z,4.20
2017-12-03T15:22:25.354Z,3.58
2017-12-03T15:24:54.511Z,3.17
2017-12-03T15:27:25.409Z,4.07
2017-12-03T15:29:55.774Z,4.15
2017-12-03T15:32:24.930Z,2.97
2017-12-03T15:34:54.223Z,2.80
2017-12-03T15:37:23.718Z,5.32
2017-12-03T15:39:52.915Z,3.50
2017-12-03T15:42:23.663Z,4.53
2017-12-03T15:44:56.252Z,4.72
2017-12-03T15:47:25.739Z,4.32
2017-12-03T15:49:54.865Z,3.42
2017-12-03T15:52:24.820Z,2.95
2017-12-03T15:54:54.132Z,3.47
2017-12-03T15:57:23.875Z,3.20
2017-12-03T15:59:54.015Z,2.35
2017-12-03T16:02:23.283Z,3.30
2017-12-03T16:04:52.699Z,3.65
2017-12-03T16:07:22.978Z,4.07
2017-12-03T16:09:53.936Z,3.45
2017-12-03T16:12:24.007Z,3.53
2017-12-03T16:14:54.765Z,3.92
2017-12-03T16:17:25.179Z,3.78
2017-12-03T16:19:55.976Z,3.80
2017-12-03T16:22:25.597Z,3.15
2017-12-03T16:24:57.245Z,3.78
2017-12-03T16:27:27.089Z,4.20
2017-12-03T16:29:58.399Z,3.10
2017-12-03T16:32:27.596Z,2.30
2017-12-03T16:34:56.775Z,3.15
2017-12-03T16:37:26.776Z,3.30
2017-12-03T16:39:56.946Z,2.60
2017-12-03T16:42:26.582Z,4.10
2017-12-03T16:44:58.766Z,2.92
2017-12-03T16:47:27.927Z,4.65
2017-12-03T16:50:00.343Z,4.22
2017-12-03T16:52:29.919Z,3.80
2017-12-03T16:55:01.981Z,3.95
2017-12-03T16:57:32.097Z,3.58
2017-12-03T17:00:01.433Z,3.30
2017-12-03T17:02:30.977Z,4.35
2017-12-03T17:05:00.387Z,4.05
2017-12-03T17:07:29.589Z,5.60
2017-12-03T17:09:58.905Z,4.70
2017-12-03T17:12:28.280Z,6.12
2017-12-03T17:14:58.496Z,4.60
2017-12-03T17:17:28.377Z,5.22
2017-12-03T17:19:59.795Z,3.83
2017-12-03T17:22:29.326Z,4.43
2017-12-03T17:24:58.614Z,4.35
2017-12-03T17:27:28.624Z,3.37
2017-12-03T17:30:01.600Z,3.72
2017-12-03T17:32:31.034Z,5.37
2017-12-03T17:35:01.496Z,3.95
2017-12-03T17:37:31.977Z,4.22
2017-12-03T17:40:01.451Z,4.57
2017-12-03T17:42:31.753Z,6.28
2017-12-03T17:45:01.283Z,5.00
2017-12-03T17:47:32.751Z,4.43
2017-12-03T17:50:01.910Z,4.15
2017-12-03T17:52:32.668Z,6.15
2017-12-03T17:55:02.869Z,5.95
2017-12-03T17:57:32.641Z,3.53
2017-12-03T18:00:01.746Z,4.60
2017-12-03T18:02:32.027Z,5.20
2017-12-03T18:05:01.706Z,5.18
2017-12-03T18:07:31.797Z,4.20
2017-12-03T18:10:02.429Z,4.72
2017-12-03T18:12:31.751Z,5.07
2017-12-03T18:15:01.293Z,5.00
2017-12-03T18:17:33.223Z,4.05
2017-12-03T18:20:04.062Z,4.65
2017-12-03T18:22:33.234Z,3.90
2017-12-03T18:25:03.380Z,4.60
2017-12-03T18:27:33.334Z,3.80
2017-12-03T18:30:02.539Z,4.28
2017-12-03T18:32:32.588Z,4.32
2017-12-03T18:35:01.748Z,6.18
2017-12-03T18:37:30.881Z,5.22
2017-12-03T18:40:00.115Z,4.35
2017-12-03T18:42:29.266Z,4.10
2017-12-03T18:44:58.435Z,3.85
2017-12-03T18:47:37.793Z,6.70
2017-12-03T18:50:09.479Z,3.20
2017-12-03T18:52:38.931Z,3.75
2017-12-03T18:55:08.861Z,4.85
2017-12-03T18:57:38.911Z,5.07
2017-12-03T19:00:08.433Z,3.78
2017-12-03T19:02:39.482Z,3.30
2017-12-03T19:05:08.701Z,3.35
2017-12-03T19:07:37.919Z,4.50
2017-12-03T19:10:07.034Z,2.87
2017-12-03T19:12:36.202Z,2.72
2017-12-03T19:15:06.923Z,2.85
2017-12-03T19:17:38.262Z,3.12
2017-12-03T19:20:09.216Z,3.78
2017-12-03T19:22:40.173Z,3.70
2017-12-03T19:25:09.333Z,3.55
2017-12-03T19:27:38.978Z,4.00
2017-12-03T19:30:08.119Z,3.75
2017-12-03T19:32:38.389Z,3.90
2017-12-03T19:35:08.418Z,3.15
2017-12-03T19:37:37.551Z,3.08
2017-12-03T19:40:07.519Z,3.35
2017-12-03T19:42:36.675Z,3.85
2017-12-03T19:45:06.811Z,3.90
2017-12-03T19:47:36.880Z,3.50
2017-12-03T19:50:06.245Z,4.25
2017-12-03T19:52:35.511Z,4.20
2017-12-03T19:55:05.148Z,4.05
2017-12-03T19:57:34.281Z,4.90
2017-12-03T20:00:03.639Z,4.35
2017-12-03T20:02:32.874Z,3.28
2017-12-03T20:05:04.828Z,3.78
2017-12-03T20:07:34.250Z,4.97
2017-12-03T20:10:03.514Z,4.20
2017-12-03T20:12:32.725Z,4.55
2017-12-03T20:15:02.214Z,3.70
2017-12-03T20:17:31.452Z,3.80
2017-12-03T20:20:01.352Z,4.60
2017-12-03T20:22:31.987Z,3.22
2017-12-03T20:25:01.338Z,3.50
2017-12-03T20:27:31.284Z,3.47
2017-12-03T20:30:00.602Z,4.10
2017-12-03T20:32:30.573Z,3.85
2017-12-03T20:35:01.011Z,3.58
2017-12-03T20:37:31.179Z,3.15
2017-12-03T20:40:01.521Z,3.92
2017-12-03T20:42:30.741Z,3.83
2017-12-03T20:44:59.989Z,4.45
2017-12-03T20:47:29.066Z,3.92
2017-12-03T20:49:59.224Z,3.10
2017-12-03T20:52:29.273Z,3.17
2017-12-03T20:54:58.472Z,2.85
2017-12-03T20:57:29.247Z,4.18
2017-12-03T21:00:00.022Z,3.00
2017-12-03T21:02:29.324Z,3.87
2017-12-03T21:04:58.553Z,4.00
2017-12-03T21:07:28.043Z,4.65
2017-12-03T21:09:57.543Z,3.90
2017-12-03T21:12:28.086Z,4.65
2017-12-03T21:14:57.976Z,3.60
2017-12-03T21:17:27.941Z,2.90
2017-12-03T21:19:57.143Z,3.55
2017-12-03T21:22:28.962Z,4.20
2017-12-03T21:24:58.557Z,4.95
2017-12-03T21:27:27.667Z,3.80
2017-12-03T21:29:57.184Z,3.60
2017-12-03T21:32:27.063Z,4.22
2017-12-03T21:34:56.454Z,2.97
2017-12-03T21:37:30.183Z,3.45
2017-12-03T21:39:59.420Z,3.67
2017-12-03T21:42:30.080Z,2.75
2017-12-03T21:44:59.500Z,3.65
2017-12-03T21:47:28.727Z,4.85
2017-12-03T21:49:58.231Z,2.70
2017-12-03T21:52:28.558Z,4.12
2017-12-03T21:54:59.518Z,2.75
2017-12-03T21:57:29.449Z,4.25
2017-12-03T22:00:00.013Z,3.75
2017-12-03T22:02:30.076Z,3.47
2017-12-03T22:04:59.690Z,3.12
2017-12-03T22:07:29.637Z,6.05
2017-12-03T22:10:00.123Z,3.78
2017-12-03T22:12:29.321Z,4.05
2017-12-03T22:14:58.811Z,3.95
2017-12-03T22:17:29.749Z,4.65
2017-12-03T22:19:59.223Z,2.97
2017-12-03T22:22:29.641Z,4.30
2017-12-03T22:24:59.040Z,2.65
2017-12-03T22:27:29.495Z,2.87
2017-12-03T22:30:00.820Z,3.95
2017-12-03T22:32:30.316Z,3.20
2017-12-03T22:35:00.546Z,3.47
2017-12-03T22:37:32.901Z,2.90
2017-12-03T22:40:02.172Z,2.15
2017-12-03T22:42:32.274Z,3.00
2017-12-03T22:45:01.400Z,2.78
2017-12-03T22:47:30.526Z,3.83
2017-12-03T22:50:07.853Z,3.10
2017-12-03T22:52:39.252Z,2.80
2017-12-03T22:55:09.330Z,2.78
2017-12-03T22:57:39.416Z,2.25
2017-12-03T23:00:10.336Z,3.17
2017-12-03T23:02:39.682Z,2.60
2017-12-03T23:05:08.834Z,2.65
2017-12-03T23:07:38.464Z,2.40
2017-12-03T23:10:07.882Z,2.55
2017-12-03T23:12:37.050Z,2.80
2017-12-03T23:15:06.194Z,2.70
2017-12-03T23:17:36.915Z,2.10
2017-12-03T23:20:06.924Z,3.42
2017-12-03T23:22:36.917Z,3.55
2017-12-03T23:25:06.184Z,2.87
2017-12-03T23:27:35.312Z,2.80
2017-12-03T23:30:06.320Z,4.00
2017-12-03T23:32:36.280Z,2.08
2017-12-03T23:35:05.383Z,2.47
2017-12-03T23:37:34.985Z,2.22
2017-12-03T23:40:04.145Z,2.22
2017-12-03T23:42:33.265Z,2.10
2017-12-03T23:45:03.992Z,2.45
2017-12-03T23:47:33.082Z,2.15
2017-12-03T23:50:02.201Z,3.25
2017-12-03T23:52:31.382Z,2.25
2017-12-03T23:55:00.530Z,2.30
2017-12-03T23:57:30.446Z,2.87
